Lexington, TX (78947)

8:47 AM CDT on October 02, 2014 (GMT -0500)
AB5KT - Texas Radio Operator | Change Station
CLOSE
Current Station
Personal Weather Station
Location: Thorndale, TX
Elevation: 574 ft
Nearby Weather Stations

Elev 574 ft 30.51 °N, 97.16 °W | Updated 20 seconds ago

Mostly Cloudy
Mostly Cloudy
79.7 °F
Feels Like 84 °F
N
0.0
Wind Variable Wind from WNW
Gusts 2.9 mph

Today
High -- | Low -- °F
--% Chance of Precip.
Yesterday
High -- | Low -- °F
Precip. -- in
7:22 AM 7:12 PM
First Quarter, 59% visible
Pressure 29.91 in
Visibility 5.0 miles
Clouds Scattered Clouds 900 ft
Scattered Clouds 1500 ft
Scattered Clouds 3200 ft
Heat Index 84 °F
Dew Point 76 °F
Humidity 87%
Rainfall 0.00 in
Snow Depth Not available.
UV 1 out of 12
Pollen 7.70 out of 12
Air Quality Not available.
Flu Activity Not available.
METAR KGYB 021335Z AUTO 19007KT 5SM BR SCT009 SCT015 SCT032 26/24 A2991 RMK AO2 T02600240

More Conditions Fewer Conditions

Pressure 29.91 in
Visibility 5.0 miles
Clouds Scattered Clouds 900 ft
Scattered Clouds 1500 ft
Scattered Clouds 3200 ft
Heat Index 84 °F
Dew Point 76 °F
Humidity 87%
Rainfall 0.00 in
Snow Depth Not available.
UV 1 out of 12
Pollen 7.70 out of 12
Air Quality Not available.
Flu Activity Not available.
METAR KGYB 021335Z AUTO 19007KT 5SM BR SCT009 SCT015 SCT032 26/24 A2991 RMK AO2 T02600240

More Conditions Fewer Conditions

10-Day Weather Forecast

Almanac

Astronomy

Oct. 02, 2014 Rise Set
Actual Time 7:22 AM CDT 7:12 PM CDT
Civil Twilight 6:58 AM CDT 7:36 PM CDT
Nautical Twilight 6:30 AM CDT 8:03 PM CDT
Astronomical Twilight 6:02 AM CDT 8:31 PM CDT
Moon 2:58 PM CDT 1:03 AM CDT
Length of Visible Light 12h 37m
Length of Day
11h 49m
Tomorrow will be 1m 50s shorter.
First Quarter, 59% of the Moon is Illuminated
Today
First Quarter
Oct 8
Full
Oct 15
Last Quarter
Oct 23
New
Oct 30
First Quarter

Today's Extremes

State Highs State Lows

Community

WunderPhotos

Upload Photos

1,758,245 photos uploaded!

WunderBlogs® & News

Nearby

Snow Depth

Station Depth Elevation
No new snow has been reported.

Earthquake Activity

City Distance Mag. Time & Date
No recent earthquake activity has been reported nearby.
Minimum magnitude displayed is 2.5.

Coastal Water Temperatures

Place Temperature
No Stations Reporting

Nearby Weather Stations